sensor_id;sensor_type;location;lat;lon;timestamp;P1;durP1;ratioP1;P2;durP2;ratioP2
58214;SDS011;44011;52.218;1.480;2022-08-19T00:01:51;9.13;;;7.53;;
58214;SDS011;44011;52.218;1.480;2022-08-19T00:04:18;8.52;;;7.32;;
58214;SDS011;44011;52.218;1.480;2022-08-19T00:06:46;9.85;;;7.03;;
58214;SDS011;44011;52.218;1.480;2022-08-19T00:09:13;11.20;;;8.40;;
58214;SDS011;44011;52.218;1.480;2022-08-19T00:11:40;8.75;;;6.72;;
58214;SDS011;44011;52.218;1.480;2022-08-19T00:14:07;10.23;;;8.02;;
58214;SDS011;44011;52.218;1.480;2022-08-19T00:16:35;9.32;;;6.85;;
58214;SDS011;44011;52.218;1.480;2022-08-19T00:19:01;9.18;;;7.00;;
58214;SDS011;44011;52.218;1.480;2022-08-19T00:21:27;8.82;;;7.50;;
58214;SDS011;44011;52.218;1.480;2022-08-19T00:23:53;10.68;;;7.25;;
58214;SDS011;44011;52.218;1.480;2022-08-19T00:26:19;10.07;;;6.97;;
58214;SDS011;44011;52.218;1.480;2022-08-19T00:28:45;8.15;;;6.65;;
58214;SDS011;44011;52.218;1.480;2022-08-19T00:31:11;8.40;;;6.68;;
58214;SDS011;44011;52.218;1.480;2022-08-19T00:33:37;8.95;;;6.82;;
58214;SDS011;44011;52.218;1.480;2022-08-19T00:36:04;8.48;;;7.13;;
58214;SDS011;44011;52.218;1.480;2022-08-19T00:38:31;7.45;;;6.32;;
58214;SDS011;44011;52.218;1.480;2022-08-19T00:40:57;7.63;;;6.05;;
58214;SDS011;44011;52.218;1.480;2022-08-19T00:43:24;11.60;;;6.28;;
58214;SDS011;44011;52.218;1.480;2022-08-19T00:45:51;7.15;;;5.72;;
58214;SDS011;44011;52.218;1.480;2022-08-19T00:48:17;7.65;;;5.60;;
58214;SDS011;44011;52.218;1.480;2022-08-19T00:50:44;7.07;;;5.90;;
58214;SDS011;44011;52.218;1.480;2022-08-19T00:53:14;6.78;;;5.57;;
58214;SDS011;44011;52.218;1.480;2022-08-19T00:55:44;6.63;;;4.65;;
58214;SDS011;44011;52.218;1.480;2022-08-19T00:58:13;6.65;;;5.78;;
58214;SDS011;44011;52.218;1.480;2022-08-19T01:00:41;10.32;;;5.97;;
58214;SDS011;44011;52.218;1.480;2022-08-19T01:03:08;6.85;;;5.43;;
58214;SDS011;44011;52.218;1.480;2022-08-19T01:05:39;7.25;;;5.88;;
58214;SDS011;44011;52.218;1.480;2022-08-19T01:08:06;9.18;;;4.90;;
58214;SDS011;44011;52.218;1.480;2022-08-19T01:10:37;6.70;;;4.78;;
58214;SDS011;44011;52.218;1.480;2022-08-19T01:13:07;11.38;;;5.40;;
58214;SDS011;44011;52.218;1.480;2022-08-19T01:15:35;9.15;;;5.47;;
58214;SDS011;44011;52.218;1.480;2022-08-19T01:18:07;6.00;;;5.22;;
58214;SDS011;44011;52.218;1.480;2022-08-19T01:20:35;6.82;;;5.03;;
58214;SDS011;44011;52.218;1.480;2022-08-19T01:23:01;8.02;;;5.80;;
58214;SDS011;44011;52.218;1.480;2022-08-19T01:25:50;7.22;;;5.57;;
58214;SDS011;44011;52.218;1.480;2022-08-19T01:28:25;7.43;;;5.22;;
58214;SDS011;44011;52.218;1.480;2022-08-19T01:30:52;8.50;;;5.30;;
58214;SDS011;44011;52.218;1.480;2022-08-19T01:33:19;7.18;;;5.28;;
58214;SDS011;44011;52.218;1.480;2022-08-19T01:35:45;8.18;;;4.95;;
58214;SDS011;44011;52.218;1.480;2022-08-19T01:38:20;6.88;;;5.28;;
58214;SDS011;44011;52.218;1.480;2022-08-19T01:40:48;5.75;;;4.63;;
58214;SDS011;44011;52.218;1.480;2022-08-19T01:43:14;5.88;;;4.70;;
58214;SDS011;44011;52.218;1.480;2022-08-19T01:45:40;7.53;;;5.22;;
58214;SDS011;44011;52.218;1.480;2022-08-19T01:48:06;7.00;;;5.10;;
58214;SDS011;44011;52.218;1.480;2022-08-19T01:50:32;6.43;;;4.68;;
58214;SDS011;44011;52.218;1.480;2022-08-19T01:52:59;5.93;;;4.65;;
58214;SDS011;44011;52.218;1.480;2022-08-19T01:55:26;8.02;;;4.68;;
58214;SDS011;44011;52.218;1.480;2022-08-19T01:57:54;8.70;;;5.18;;
58214;SDS011;44011;52.218;1.480;2022-08-19T02:00:23;6.47;;;4.20;;
58214;SDS011;44011;52.218;1.480;2022-08-19T02:02:49;6.60;;;4.38;;
58214;SDS011;44011;52.218;1.480;2022-08-19T02:05:15;8.90;;;4.70;;
58214;SDS011;44011;52.218;1.480;2022-08-19T02:07:43;8.18;;;4.90;;
58214;SDS011;44011;52.218;1.480;2022-08-19T02:10:12;5.65;;;4.93;;
58214;SDS011;44011;52.218;1.480;2022-08-19T02:12:42;14.25;;;5.00;;
58214;SDS011;44011;52.218;1.480;2022-08-19T02:15:08;7.07;;;4.82;;
58214;SDS011;44011;52.218;1.480;2022-08-19T02:17:34;7.13;;;4.90;;
58214;SDS011;44011;52.218;1.480;2022-08-19T02:19:59;7.60;;;4.63;;
58214;SDS011;44011;52.218;1.480;2022-08-19T02:22:25;7.93;;;4.95;;
58214;SDS011;44011;52.218;1.480;2022-08-19T02:24:52;6.80;;;4.78;;
58214;SDS011;44011;52.218;1.480;2022-08-19T02:27:18;6.85;;;4.75;;
58214;SDS011;44011;52.218;1.480;2022-08-19T02:29:45;14.75;;;5.20;;
58214;SDS011;44011;52.218;1.480;2022-08-19T02:32:11;9.40;;;4.60;;
58214;SDS011;44011;52.218;1.480;2022-08-19T02:34:36;9.00;;;4.35;;
58214;SDS011;44011;52.218;1.480;2022-08-19T02:37:02;8.15;;;4.32;;
58214;SDS011;44011;52.218;1.480;2022-08-19T02:39:28;4.95;;;4.40;;
58214;SDS011;44011;52.218;1.480;2022-08-19T02:41:53;8.40;;;4.97;;
58214;SDS011;44011;52.218;1.480;2022-08-19T02:44:19;6.85;;;4.70;;
58214;SDS011;44011;52.218;1.480;2022-08-19T02:46:47;8.70;;;4.80;;
58214;SDS011;44011;52.218;1.480;2022-08-19T02:49:15;6.05;;;4.70;;
58214;SDS011;44011;52.218;1.480;2022-08-19T02:51:42;6.03;;;4.43;;
58214;SDS011;44011;52.218;1.480;2022-08-19T02:54:09;6.05;;;4.25;;
58214;SDS011;44011;52.218;1.480;2022-08-19T02:56:36;7.65;;;5.10;;
58214;SDS011;44011;52.218;1.480;2022-08-19T02:59:04;5.07;;;4.57;;
58214;SDS011;44011;52.218;1.480;2022-08-19T03:01:36;9.38;;;4.90;;
58214;SDS011;44011;52.218;1.480;2022-08-19T03:04:03;9.27;;;4.40;;
58214;SDS011;44011;52.218;1.480;2022-08-19T03:06:31;5.93;;;4.20;;
58214;SDS011;44011;52.218;1.480;2022-08-19T03:08:57;6.85;;;4.38;;
58214;SDS011;44011;52.218;1.480;2022-08-19T03:11:27;4.88;;;4.38;;
58214;SDS011;44011;52.218;1.480;2022-08-19T03:13:54;6.50;;;4.00;;
58214;SDS011;44011;52.218;1.480;2022-08-19T03:16:21;6.35;;;4.05;;
58214;SDS011;44011;52.218;1.480;2022-08-19T03:18:49;5.07;;;3.90;;
58214;SDS011;44011;52.218;1.480;2022-08-19T03:21:16;6.30;;;4.22;;
58214;SDS011;44011;52.218;1.480;2022-08-19T03:23:43;8.52;;;3.97;;
58214;SDS011;44011;52.218;1.480;2022-08-19T03:26:09;6.20;;;3.95;;
58214;SDS011;44011;52.218;1.480;2022-08-19T03:28:34;4.68;;;4.05;;
58214;SDS011;44011;52.218;1.480;2022-08-19T03:31:02;7.40;;;3.83;;
58214;SDS011;44011;52.218;1.480;2022-08-19T03:33:30;4.63;;;3.60;;
58214;SDS011;44011;52.218;1.480;2022-08-19T03:36:11;4.82;;;3.20;;
58214;SDS011;44011;52.218;1.480;2022-08-19T03:38:42;4.50;;;3.47;;
58214;SDS011;44011;52.218;1.480;2022-08-19T03:41:11;5.40;;;3.58;;
58214;SDS011;44011;52.218;1.480;2022-08-19T03:43:42;4.68;;;3.20;;
58214;SDS011;44011;52.218;1.480;2022-08-19T03:46:13;4.35;;;3.60;;
58214;SDS011;44011;52.218;1.480;2022-08-19T03:48:41;5.75;;;3.50;;
58214;SDS011;44011;52.218;1.480;2022-08-19T03:51:08;4.90;;;3.58;;
58214;SDS011;44011;52.218;1.480;2022-08-19T03:53:41;5.07;;;3.20;;
58214;SDS011;44011;52.218;1.480;2022-08-19T03:56:08;5.82;;;3.90;;
58214;SDS011;44011;52.218;1.480;2022-08-19T03:58:34;7.30;;;3.63;;
58214;SDS011;44011;52.218;1.480;2022-08-19T04:01:00;5.43;;;3.60;;
58214;SDS011;44011;52.218;1.480;2022-08-19T04:03:26;4.68;;;3.22;;
58214;SDS011;44011;52.218;1.480;2022-08-19T04:05:54;4.70;;;3.25;;
58214;SDS011;44011;52.218;1.480;2022-08-19T04:08:20;5.78;;;3.35;;
58214;SDS011;44011;52.218;1.480;2022-08-19T04:10:48;7.07;;;3.58;;
58214;SDS011;44011;52.218;1.480;2022-08-19T04:13:17;4.30;;;3.63;;
58214;SDS011;44011;52.218;1.480;2022-08-19T04:15:44;6.60;;;3.00;;
58214;SDS011;44011;52.218;1.480;2022-08-19T04:18:11;5.03;;;3.60;;
58214;SDS011;44011;52.218;1.480;2022-08-19T04:20:41;8.10;;;3.75;;
58214;SDS011;44011;52.218;1.480;2022-08-19T04:23:08;3.33;;;3.03;;
58214;SDS011;44011;52.218;1.480;2022-08-19T04:25:35;6.85;;;3.47;;
58214;SDS011;44011;52.218;1.480;2022-08-19T04:28:02;7.72;;;4.05;;
58214;SDS011;44011;52.218;1.480;2022-08-19T04:30:28;6.68;;;3.55;;
58214;SDS011;44011;52.218;1.480;2022-08-19T04:32:54;5.18;;;3.60;;
58214;SDS011;44011;52.218;1.480;2022-08-19T04:35:19;4.22;;;3.80;;
58214;SDS011;44011;52.218;1.480;2022-08-19T04:37:45;4.72;;;3.85;;
58214;SDS011;44011;52.218;1.480;2022-08-19T04:40:10;7.07;;;3.90;;
58214;SDS011;44011;52.218;1.480;2022-08-19T04:42:55;6.97;;;3.50;;
58214;SDS011;44011;52.218;1.480;2022-08-19T04:45:21;8.18;;;3.72;;
58214;SDS011;44011;52.218;1.480;2022-08-19T04:47:47;4.68;;;3.63;;
58214;SDS011;44011;52.218;1.480;2022-08-19T04:50:13;4.97;;;3.95;;
58214;SDS011;44011;52.218;1.480;2022-08-19T04:52:39;4.95;;;3.65;;
58214;SDS011;44011;52.218;1.480;2022-08-19T04:55:08;7.18;;;3.70;;
58214;SDS011;44011;52.218;1.480;2022-08-19T04:57:35;4.00;;;3.38;;
58214;SDS011;44011;52.218;1.480;2022-08-19T05:00:02;4.05;;;3.65;;
58214;SDS011;44011;52.218;1.480;2022-08-19T05:02:28;6.25;;;3.70;;
58214;SDS011;44011;52.218;1.480;2022-08-19T05:04:57;5.85;;;3.75;;
58214;SDS011;44011;52.218;1.480;2022-08-19T05:07:26;8.23;;;4.22;;
58214;SDS011;44011;52.218;1.480;2022-08-19T05:09:52;5.47;;;3.78;;
58214;SDS011;44011;52.218;1.480;2022-08-19T05:12:18;6.68;;;3.53;;
58214;SDS011;44011;52.218;1.480;2022-08-19T05:14:44;7.78;;;3.55;;
58214;SDS011;44011;52.218;1.480;2022-08-19T05:17:12;5.88;;;3.67;;
58214;SDS011;44011;52.218;1.480;2022-08-19T05:19:38;6.38;;;3.72;;
58214;SDS011;44011;52.218;1.480;2022-08-19T05:22:22;9.05;;;3.58;;
58214;SDS011;44011;52.218;1.480;2022-08-19T05:25:08;7.15;;;4.03;;
58214;SDS011;44011;52.218;1.480;2022-08-19T05:27:37;4.68;;;3.55;;
58214;SDS011;44011;52.218;1.480;2022-08-19T05:30:02;4.88;;;3.63;;
58214;SDS011;44011;52.218;1.480;2022-08-19T05:32:29;5.60;;;3.60;;
58214;SDS011;44011;52.218;1.480;2022-08-19T05:34:54;6.68;;;3.90;;
58214;SDS011;44011;52.218;1.480;2022-08-19T05:37:20;5.88;;;3.95;;
58214;SDS011;44011;52.218;1.480;2022-08-19T05:39:46;8.05;;;4.07;;
58214;SDS011;44011;52.218;1.480;2022-08-19T05:42:12;7.47;;;3.90;;
58214;SDS011;44011;52.218;1.480;2022-08-19T05:44:39;5.88;;;3.88;;
58214;SDS011;44011;52.218;1.480;2022-08-19T05:47:09;3.80;;;3.35;;
58214;SDS011;44011;52.218;1.480;2022-08-19T05:49:36;6.05;;;3.38;;
58214;SDS011;44011;52.218;1.480;2022-08-19T05:52:03;5.97;;;3.92;;
58214;SDS011;44011;52.218;1.480;2022-08-19T05:54:30;4.07;;;3.00;;
58214;SDS011;44011;52.218;1.480;2022-08-19T05:56:56;5.55;;;3.42;;
58214;SDS011;44011;52.218;1.480;2022-08-19T05:59:22;7.00;;;3.60;;
58214;SDS011;44011;52.218;1.480;2022-08-19T06:01:49;5.03;;;3.42;;
58214;SDS011;44011;52.218;1.480;2022-08-19T06:04:16;5.25;;;3.30;;
58214;SDS011;44011;52.218;1.480;2022-08-19T06:06:44;3.83;;;3.20;;
58214;SDS011;44011;52.218;1.480;2022-08-19T06:09:10;3.70;;;3.28;;
58214;SDS011;44011;52.218;1.480;2022-08-19T06:11:37;5.22;;;2.92;;
58214;SDS011;44011;52.218;1.480;2022-08-19T06:14:08;8.25;;;3.45;;
58214;SDS011;44011;52.218;1.480;2022-08-19T06:16:37;5.20;;;3.13;;
58214;SDS011;44011;52.218;1.480;2022-08-19T06:19:05;5.53;;;3.55;;
58214;SDS011;44011;52.218;1.480;2022-08-19T06:21:36;4.82;;;3.03;;
58214;SDS011;44011;52.218;1.480;2022-08-19T06:24:03;4.85;;;3.00;;
58214;SDS011;44011;52.218;1.480;2022-08-19T06:26:30;5.65;;;3.70;;
58214;SDS011;44011;52.218;1.480;2022-08-19T06:28:55;6.63;;;3.22;;
58214;SDS011;44011;52.218;1.480;2022-08-19T06:31:22;2.92;;;2.63;;
58214;SDS011;44011;52.218;1.480;2022-08-19T06:33:51;3.40;;;2.63;;
58214;SDS011;44011;52.218;1.480;2022-08-19T06:36:21;5.80;;;3.30;;
58214;SDS011;44011;52.218;1.480;2022-08-19T06:41:17;4.90;;;2.78;;
58214;SDS011;44011;52.218;1.480;2022-08-19T06:43:43;3.80;;;2.97;;
58214;SDS011;44011;52.218;1.480;2022-08-19T06:46:10;3.65;;;2.60;;
58214;SDS011;44011;52.218;1.480;2022-08-19T06:48:39;3.55;;;2.78;;
58214;SDS011;44011;52.218;1.480;2022-08-19T06:51:05;5.30;;;2.85;;
58214;SDS011;44011;52.218;1.480;2022-08-19T06:53:31;3.20;;;2.58;;
58214;SDS011;44011;52.218;1.480;2022-08-19T06:55:57;12.63;;;3.33;;
58214;SDS011;44011;52.218;1.480;2022-08-19T06:58:27;2.97;;;2.50;;
58214;SDS011;44011;52.218;1.480;2022-08-19T07:00:58;3.08;;;2.30;;
58214;SDS011;44011;52.218;1.480;2022-08-19T07:03:30;2.45;;;2.05;;
58214;SDS011;44011;52.218;1.480;2022-08-19T07:06:02;4.10;;;2.33;;
58214;SDS011;44011;52.218;1.480;2022-08-19T07:08:33;2.78;;;1.70;;
58214;SDS011;44011;52.218;1.480;2022-08-19T07:10:59;5.35;;;2.10;;
58214;SDS011;44011;52.218;1.480;2022-08-19T07:13:25;3.97;;;2.00;;
58214;SDS011;44011;52.218;1.480;2022-08-19T07:15:51;5.50;;;2.40;;
58214;SDS011;44011;52.218;1.480;2022-08-19T07:18:17;3.65;;;2.13;;
58214;SDS011;44011;52.218;1.480;2022-08-19T07:20:44;4.18;;;1.77;;
58214;SDS011;44011;52.218;1.480;2022-08-19T07:23:10;5.18;;;2.55;;
58214;SDS011;44011;52.218;1.480;2022-08-19T07:25:36;2.33;;;1.75;;
58214;SDS011;44011;52.218;1.480;2022-08-19T07:28:03;3.45;;;1.77;;
58214;SDS011;44011;52.218;1.480;2022-08-19T07:30:30;4.10;;;1.85;;
58214;SDS011;44011;52.218;1.480;2022-08-19T07:32:56;4.72;;;1.90;;
58214;SDS011;44011;52.218;1.480;2022-08-19T07:35:22;3.70;;;1.73;;
58214;SDS011;44011;52.218;1.480;2022-08-19T07:37:48;3.15;;;1.67;;
58214;SDS011;44011;52.218;1.480;2022-08-19T07:40:14;2.80;;;1.75;;
58214;SDS011;44011;52.218;1.480;2022-08-19T07:42:40;2.67;;;2.03;;
58214;SDS011;44011;52.218;1.480;2022-08-19T07:45:06;2.70;;;2.00;;
58214;SDS011;44011;52.218;1.480;2022-08-19T07:47:33;2.85;;;1.70;;
58214;SDS011;44011;52.218;1.480;2022-08-19T07:49:58;1.95;;;1.70;;
58214;SDS011;44011;52.218;1.480;2022-08-19T07:52:24;1.95;;;1.20;;
58214;SDS011;44011;52.218;1.480;2022-08-19T07:54:50;2.38;;;1.15;;
58214;SDS011;44011;52.218;1.480;2022-08-19T07:57:16;5.72;;;1.65;;
58214;SDS011;44011;52.218;1.480;2022-08-19T07:59:41;10.18;;;1.30;;
58214;SDS011;44011;52.218;1.480;2022-08-19T08:02:07;4.03;;;1.70;;
58214;SDS011;44011;52.218;1.480;2022-08-19T08:04:33;5.43;;;1.38;;
58214;SDS011;44011;52.218;1.480;2022-08-19T08:07:18;2.35;;;1.70;;
58214;SDS011;44011;52.218;1.480;2022-08-19T08:10:04;1.25;;;1.10;;
58214;SDS011;44011;52.218;1.480;2022-08-19T08:12:36;3.55;;;1.30;;
58214;SDS011;44011;52.218;1.480;2022-08-19T08:15:07;2.17;;;1.00;;
58214;SDS011;44011;52.218;1.480;2022-08-19T08:17:38;2.75;;;1.40;;
58214;SDS011;44011;52.218;1.480;2022-08-19T08:20:04;1.25;;;1.00;;
58214;SDS011;44011;52.218;1.480;2022-08-19T08:22:32;6.57;;;1.38;;
58214;SDS011;44011;52.218;1.480;2022-08-19T08:25:18;1.17;;;1.00;;
58214;SDS011;44011;52.218;1.480;2022-08-19T08:27:46;5.25;;;1.13;;
58214;SDS011;44011;52.218;1.480;2022-08-19T08:30:13;2.50;;;1.10;;
58214;SDS011;44011;52.218;1.480;2022-08-19T08:32:41;9.43;;;1.27;;
58214;SDS011;44011;52.218;1.480;2022-08-19T08:35:08;9.82;;;1.25;;
58214;SDS011;44011;52.218;1.480;2022-08-19T08:37:36;7.10;;;1.33;;
58214;SDS011;44011;52.218;1.480;2022-08-19T08:40:07;3.80;;;0.93;;
58214;SDS011;44011;52.218;1.480;2022-08-19T08:42:57;1.33;;;0.88;;
58214;SDS011;44011;52.218;1.480;2022-08-19T08:45:27;0.93;;;0.80;;
58214;SDS011;44011;52.218;1.480;2022-08-19T08:47:54;0.73;;;0.60;;
58214;SDS011;44011;52.218;1.480;2022-08-19T08:50:28;5.88;;;1.05;;
58214;SDS011;44011;52.218;1.480;2022-08-19T08:53:00;1.05;;;0.60;;
58214;SDS011;44011;52.218;1.480;2022-08-19T08:55:27;0.63;;;0.30;;
58214;SDS011;44011;52.218;1.480;2022-08-19T08:58:03;0.95;;;0.30;;
58214;SDS011;44011;52.218;1.480;2022-08-19T09:00:31;0.73;;;0.30;;
58214;SDS011;44011;52.218;1.480;2022-08-19T09:03:00;0.70;;;0.30;;
58214;SDS011;44011;52.218;1.480;2022-08-19T09:05:41;2.10;;;0.70;;
58214;SDS011;44011;52.218;1.480;2022-08-19T09:08:20;6.25;;;0.90;;
58214;SDS011;44011;52.218;1.480;2022-08-19T09:10:54;9.77;;;1.20;;
58214;SDS011;44011;52.218;1.480;2022-08-19T09:15:55;19.80;;;1.42;;
58214;SDS011;44011;52.218;1.480;2022-08-19T09:18:24;4.68;;;0.70;;
58214;SDS011;44011;52.218;1.480;2022-08-19T09:20:49;2.83;;;0.80;;
58214;SDS011;44011;52.218;1.480;2022-08-19T09:23:15;1.30;;;1.17;;
58214;SDS011;44011;52.218;1.480;2022-08-19T09:25:41;1.42;;;0.50;;
58214;SDS011;44011;52.218;1.480;2022-08-19T09:28:07;2.45;;;0.80;;
58214;SDS011;44011;52.218;1.480;2022-08-19T09:30:34;4.32;;;0.73;;
58214;SDS011;44011;52.218;1.480;2022-08-19T09:33:04;3.75;;;0.90;;
58214;SDS011;44011;52.218;1.480;2022-08-19T09:35:31;1.13;;;0.77;;
58214;SDS011;44011;52.218;1.480;2022-08-19T09:37:57;1.83;;;0.65;;
58214;SDS011;44011;52.218;1.480;2022-08-19T09:40:24;2.20;;;0.60;;
58214;SDS011;44011;52.218;1.480;2022-08-19T09:42:50;0.50;;;0.50;;
58214;SDS011;44011;52.218;1.480;2022-08-19T09:45:17;1.55;;;0.70;;
58214;SDS011;44011;52.218;1.480;2022-08-19T09:47:46;1.15;;;0.70;;
58214;SDS011;44011;52.218;1.480;2022-08-19T09:50:12;0.68;;;0.60;;
58214;SDS011;44011;52.218;1.480;2022-08-19T09:52:38;3.65;;;0.65;;
58214;SDS011;44011;52.218;1.480;2022-08-19T09:55:05;0.77;;;0.50;;
58214;SDS011;44011;52.218;1.480;2022-08-19T09:57:31;3.53;;;0.73;;
58214;SDS011;44011;52.218;1.480;2022-08-19T09:59:57;0.95;;;0.73;;
58214;SDS011;44011;52.218;1.480;2022-08-19T10:02:23;1.83;;;0.95;;
58214;SDS011;44011;52.218;1.480;2022-08-19T10:04:50;1.35;;;0.90;;
58214;SDS011;44011;52.218;1.480;2022-08-19T10:07:34;4.10;;;0.70;;
58214;SDS011;44011;52.218;1.480;2022-08-19T10:10:00;1.85;;;0.70;;
58214;SDS011;44011;52.218;1.480;2022-08-19T10:12:26;1.42;;;1.00;;
58214;SDS011;44011;52.218;1.480;2022-08-19T10:14:52;3.08;;;0.70;;
58214;SDS011;44011;52.218;1.480;2022-08-19T10:17:19;0.82;;;0.82;;
58214;SDS011;44011;52.218;1.480;2022-08-19T10:19:45;1.35;;;0.80;;
58214;SDS011;44011;52.218;1.480;2022-08-19T10:22:12;1.77;;;0.70;;
58214;SDS011;44011;52.218;1.480;2022-08-19T10:24:38;0.70;;;0.70;;
58214;SDS011;44011;52.218;1.480;2022-08-19T10:27:04;0.80;;;0.70;;
58214;SDS011;44011;52.218;1.480;2022-08-19T10:29:31;0.98;;;0.70;;
58214;SDS011;44011;52.218;1.480;2022-08-19T10:31:57;1.55;;;0.80;;
58214;SDS011;44011;52.218;1.480;2022-08-19T10:34:25;1.73;;;0.90;;
58214;SDS011;44011;52.218;1.480;2022-08-19T10:36:50;0.88;;;0.75;;
58214;SDS011;44011;52.218;1.480;2022-08-19T10:39:16;2.15;;;1.15;;
58214;SDS011;44011;52.218;1.480;2022-08-19T10:41:42;0.65;;;0.65;;
58214;SDS011;44011;52.218;1.480;2022-08-19T10:44:10;0.95;;;0.70;;
58214;SDS011;44011;52.218;1.480;2022-08-19T10:46:38;1.45;;;0.80;;
58214;SDS011;44011;52.218;1.480;2022-08-19T10:49:07;0.47;;;0.47;;
58214;SDS011;44011;52.218;1.480;2022-08-19T10:51:33;0.50;;;0.50;;
58214;SDS011;44011;52.218;1.480;2022-08-19T10:54:17;1.95;;;0.80;;
58214;SDS011;44011;52.218;1.480;2022-08-19T10:56:43;0.95;;;0.95;;
58214;SDS011;44011;52.218;1.480;2022-08-19T10:59:21;1.20;;;0.63;;
58214;SDS011;44011;52.218;1.480;2022-08-19T11:01:50;2.22;;;0.88;;
58214;SDS011;44011;52.218;1.480;2022-08-19T11:04:16;0.95;;;0.80;;
58214;SDS011;44011;52.218;1.480;2022-08-19T11:06:44;3.50;;;0.80;;
58214;SDS011;44011;52.218;1.480;2022-08-19T11:09:12;1.92;;;0.57;;
58214;SDS011;44011;52.218;1.480;2022-08-19T11:11:40;1.85;;;0.60;;
58214;SDS011;44011;52.218;1.480;2022-08-19T11:14:07;0.50;;;0.50;;
58214;SDS011;44011;52.218;1.480;2022-08-19T11:16:34;0.70;;;0.70;;
58214;SDS011;44011;52.218;1.480;2022-08-19T11:19:01;1.33;;;0.63;;
58214;SDS011;44011;52.218;1.480;2022-08-19T11:21:31;1.13;;;0.70;;
58214;SDS011;44011;52.218;1.480;2022-08-19T11:24:04;0.75;;;0.40;;
58214;SDS011;44011;52.218;1.480;2022-08-19T11:26:31;1.98;;;0.50;;
58214;SDS011;44011;52.218;1.480;2022-08-19T11:28:58;4.93;;;0.57;;
58214;SDS011;44011;52.218;1.480;2022-08-19T11:31:26;2.70;;;0.50;;
58214;SDS011;44011;52.218;1.480;2022-08-19T11:33:53;1.60;;;0.60;;
58214;SDS011;44011;52.218;1.480;2022-08-19T11:36:19;1.15;;;0.63;;
58214;SDS011;44011;52.218;1.480;2022-08-19T11:38:45;1.05;;;0.75;;
58214;SDS011;44011;52.218;1.480;2022-08-19T11:41:13;0.60;;;0.50;;
58214;SDS011;44011;52.218;1.480;2022-08-19T11:43:40;1.15;;;0.52;;
58214;SDS011;44011;52.218;1.480;2022-08-19T11:46:06;0.73;;;0.60;;
58214;SDS011;44011;52.218;1.480;2022-08-19T11:48:33;0.95;;;0.60;;
58214;SDS011;44011;52.218;1.480;2022-08-19T11:51:02;4.03;;;0.95;;
58214;SDS011;44011;52.218;1.480;2022-08-19T11:53:31;0.60;;;0.60;;
58214;SDS011;44011;52.218;1.480;2022-08-19T11:55:56;2.03;;;0.60;;
58214;SDS011;44011;52.218;1.480;2022-08-19T11:58:22;0.65;;;0.60;;
58214;SDS011;44011;52.218;1.480;2022-08-19T12:00:47;4.05;;;0.70;;
58214;SDS011;44011;52.218;1.480;2022-08-19T12:03:13;1.80;;;0.60;;
58214;SDS011;44011;52.218;1.480;2022-08-19T12:05:40;2.88;;;0.50;;
58214;SDS011;44011;52.218;1.480;2022-08-19T12:08:06;0.50;;;0.50;;
58214;SDS011;44011;52.218;1.480;2022-08-19T12:10:32;0.73;;;0.65;;
58214;SDS011;44011;52.218;1.480;2022-08-19T12:12:59;0.82;;;0.50;;
58214;SDS011;44011;52.218;1.480;2022-08-19T12:15:25;0.80;;;0.77;;
58214;SDS011;44011;52.218;1.480;2022-08-19T12:17:54;2.58;;;0.75;;
58214;SDS011;44011;52.218;1.480;2022-08-19T12:20:22;6.25;;;0.88;;
58214;SDS011;44011;52.218;1.480;2022-08-19T12:22:48;1.15;;;0.68;;
58214;SDS011;44011;52.218;1.480;2022-08-19T12:25:15;5.68;;;0.70;;
58214;SDS011;44011;52.218;1.480;2022-08-19T12:27:40;3.03;;;0.70;;
58214;SDS011;44011;52.218;1.480;2022-08-19T12:30:07;1.38;;;0.80;;
58214;SDS011;44011;52.218;1.480;2022-08-19T12:32:34;0.75;;;0.70;;
58214;SDS011;44011;52.218;1.480;2022-08-19T12:34:59;0.95;;;0.80;;
58214;SDS011;44011;52.218;1.480;2022-08-19T12:37:26;0.68;;;0.68;;
58214;SDS011;44011;52.218;1.480;2022-08-19T12:39:51;3.17;;;1.10;;
58214;SDS011;44011;52.218;1.480;2022-08-19T12:42:17;0.50;;;0.50;;
58214;SDS011;44011;52.218;1.480;2022-08-19T12:44:43;0.90;;;0.80;;
58214;SDS011;44011;52.218;1.480;2022-08-19T12:47:09;0.70;;;0.70;;
58214;SDS011;44011;52.218;1.480;2022-08-19T12:49:36;0.98;;;0.65;;
58214;SDS011;44011;52.218;1.480;2022-08-19T12:52:04;3.47;;;0.70;;
58214;SDS011;44011;52.218;1.480;2022-08-19T12:54:30;1.70;;;0.80;;
58214;SDS011;44011;52.218;1.480;2022-08-19T12:56:57;1.17;;;0.60;;
58214;SDS011;44011;52.218;1.480;2022-08-19T12:59:23;1.52;;;0.60;;
58214;SDS011;44011;52.218;1.480;2022-08-19T13:01:48;1.33;;;0.50;;
58214;SDS011;44011;52.218;1.480;2022-08-19T13:04:14;1.25;;;0.70;;
58214;SDS011;44011;52.218;1.480;2022-08-19T13:06:40;0.80;;;0.80;;
58214;SDS011;44011;52.218;1.480;2022-08-19T13:09:07;3.08;;;1.00;;
58214;SDS011;44011;52.218;1.480;2022-08-19T13:11:33;5.47;;;0.93;;
58214;SDS011;44011;52.218;1.480;2022-08-19T13:14:00;2.80;;;0.77;;
58214;SDS011;44011;52.218;1.480;2022-08-19T13:16:26;1.98;;;0.60;;
58214;SDS011;44011;52.218;1.480;2022-08-19T13:18:53;1.52;;;0.50;;
58214;SDS011;44011;52.218;1.480;2022-08-19T13:21:21;3.00;;;0.73;;
58214;SDS011;44011;52.218;1.480;2022-08-19T13:23:48;1.27;;;0.63;;
58214;SDS011;44011;52.218;1.480;2022-08-19T13:26:14;1.08;;;0.70;;
58214;SDS011;44011;52.218;1.480;2022-08-19T13:28:40;1.08;;;0.60;;
58214;SDS011;44011;52.218;1.480;2022-08-19T13:31:25;1.70;;;0.60;;
58214;SDS011;44011;52.218;1.480;2022-08-19T13:34:11;0.98;;;0.75;;
58214;SDS011;44011;52.218;1.480;2022-08-19T13:36:37;0.90;;;0.50;;
58214;SDS011;44011;52.218;1.480;2022-08-19T13:39:04;2.55;;;0.80;;
58214;SDS011;44011;52.218;1.480;2022-08-19T13:41:32;2.25;;;0.70;;
58214;SDS011;44011;52.218;1.480;2022-08-19T13:43:58;0.80;;;0.57;;
58214;SDS011;44011;52.218;1.480;2022-08-19T13:46:24;1.77;;;0.82;;
58214;SDS011;44011;52.218;1.480;2022-08-19T13:48:50;2.75;;;0.85;;
58214;SDS011;44011;52.218;1.480;2022-08-19T13:51:16;1.83;;;0.70;;
58214;SDS011;44011;52.218;1.480;2022-08-19T13:53:42;2.70;;;0.90;;
58214;SDS011;44011;52.218;1.480;2022-08-19T13:56:10;2.85;;;1.08;;
58214;SDS011;44011;52.218;1.480;2022-08-19T13:58:38;3.50;;;1.50;;
58214;SDS011;44011;52.218;1.480;2022-08-19T14:01:04;2.53;;;0.85;;
58214;SDS011;44011;52.218;1.480;2022-08-19T14:03:30;1.98;;;0.95;;
58214;SDS011;44011;52.218;1.480;2022-08-19T14:05:57;4.07;;;1.10;;
58214;SDS011;44011;52.218;1.480;2022-08-19T14:08:23;2.45;;;1.40;;
58214;SDS011;44011;52.218;1.480;2022-08-19T14:10:50;3.65;;;1.17;;
58214;SDS011;44011;52.218;1.480;2022-08-19T14:13:16;1.38;;;1.00;;
58214;SDS011;44011;52.218;1.480;2022-08-19T14:15:44;5.30;;;1.58;;
58214;SDS011;44011;52.218;1.480;2022-08-19T14:18:10;4.93;;;1.17;;
58214;SDS011;44011;52.218;1.480;2022-08-19T14:20:36;2.45;;;1.30;;
58214;SDS011;44011;52.218;1.480;2022-08-19T14:23:02;3.60;;;1.10;;
58214;SDS011;44011;52.218;1.480;2022-08-19T14:25:30;3.08;;;1.05;;
58214;SDS011;44011;52.218;1.480;2022-08-19T14:27:57;1.60;;;0.80;;
58214;SDS011;44011;52.218;1.480;2022-08-19T14:30:24;1.42;;;1.10;;
58214;SDS011;44011;52.218;1.480;2022-08-19T14:32:58;1.40;;;1.10;;
58214;SDS011;44011;52.218;1.480;2022-08-19T14:35:26;1.67;;;0.90;;
58214;SDS011;44011;52.218;1.480;2022-08-19T14:37:52;3.63;;;1.08;;
58214;SDS011;44011;52.218;1.480;2022-08-19T14:40:24;3.25;;;0.98;;
58214;SDS011;44011;52.218;1.480;2022-08-19T14:42:56;4.55;;;1.20;;
58214;SDS011;44011;52.218;1.480;2022-08-19T14:45:27;4.82;;;1.10;;
58214;SDS011;44011;52.218;1.480;2022-08-19T14:47:53;6.97;;;1.30;;
58214;SDS011;44011;52.218;1.480;2022-08-19T14:50:19;4.47;;;1.23;;
58214;SDS011;44011;52.218;1.480;2022-08-19T14:52:45;1.63;;;0.82;;
58214;SDS011;44011;52.218;1.480;2022-08-19T14:55:13;2.45;;;1.10;;
58214;SDS011;44011;52.218;1.480;2022-08-19T14:57:42;1.13;;;0.82;;